Time;durP1;ratioP1;P1;durP2;ratioP2;P2;SDS_P1;SDS_P2;PMS_P1;PMS_P2;Temp;Humidity;BMP_temperature;BMP_pressure;BME280_temperature;BME280_humidity;BME280_pressure;Samples;Min_cycle;Max_cycle;Signal;HPM_P1;HPM_P2
2023/11/27 00:00:38;;;;;;;9.70;5.22;;;5.60;68.90;;;;;;5037335;28;20041;-81
2023/11/27 00:03:04;;;;;;;7.60;4.97;;;5.50;68.70;;;;;;5035910;28;20416;-81
2023/11/27 00:05:30;;;;;;;7.82;5.00;;;5.50;68.60;;;;;;5035577;28;25228;-79
2023/11/27 00:07:56;;;;;;;7.43;4.82;;;5.50;68.50;;;;;;5019079;28;20570;-79
2023/11/27 00:10:22;;;;;;;8.90;5.13;;;5.50;68.40;;;;;;5035565;28;20033;-80
2023/11/27 00:12:48;;;;;;;8.55;5.28;;;5.50;68.60;;;;;;5019457;28;20034;-79
2023/11/27 00:15:15;;;;;;;7.70;4.53;;;5.50;68.60;;;;;;5015102;28;20504;-80
2023/11/27 00:17:41;;;;;;;7.93;4.90;;;5.50;68.60;;;;;;5018270;28;20026;-82
2023/11/27 00:20:09;;;;;;;8.15;5.15;;;5.50;68.80;;;;;;5015768;28;20037;-80
2023/11/27 00:22:36;;;;;;;7.55;4.53;;;5.50;68.60;;;;;;5016584;28;20021;-82
2023/11/27 00:25:03;;;;;;;7.90;4.93;;;5.50;68.60;;;;;;5012535;28;20436;-81
2023/11/27 00:27:29;;;;;;;7.30;4.57;;;5.50;68.90;;;;;;5015123;28;20038;-80
2023/11/27 00:29:55;;;;;;;8.18;4.95;;;5.50;68.60;;;;;;5019190;28;20099;-81
2023/11/27 00:32:21;;;;;;;8.13;4.82;;;5.50;68.30;;;;;;5001017;28;20865;-83
2023/11/27 00:34:47;;;;;;;7.47;4.78;;;5.50;68.30;;;;;;5034943;28;21002;-80
2023/11/27 00:37:13;;;;;;;8.30;4.70;;;5.50;68.30;;;;;;5035336;28;20080;-84
2023/11/27 00:39:39;;;;;;;7.30;4.60;;;5.50;68.40;;;;;;5032808;28;20391;-81
2023/11/27 00:42:06;;;;;;;7.45;5.03;;;5.50;68.20;;;;;;5018592;28;20514;-84
2023/11/27 00:44:32;;;;;;;7.85;4.55;;;5.40;68.10;;;;;;5035012;28;20084;-85
2023/11/27 00:46:58;;;;;;;7.50;4.80;;;5.50;68.00;;;;;;5019262;28;20120;-84
2023/11/27 00:49:24;;;;;;;7.97;5.20;;;5.40;67.90;;;;;;5033087;28;20096;-83
2023/11/27 00:51:50;;;;;;;6.57;4.38;;;5.40;67.80;;;;;;5020114;28;20052;-84
2023/11/27 00:54:16;;;;;;;7.82;4.80;;;5.40;67.40;;;;;;5029945;28;20048;-85
2023/11/27 00:56:42;;;;;;;6.45;4.38;;;5.40;67.60;;;;;;5031271;28;20037;-86
2023/11/27 00:59:08;;;;;;;8.48;5.15;;;5.40;67.60;;;;;;5047124;28;20034;-83
2023/11/27 01:01:35;;;;;;;6.60;4.60;;;5.50;67.80;;;;;;5015162;28;20058;-83
2023/11/27 01:04:01;;;;;;;9.15;5.30;;;5.40;67.70;;;;;;5018934;28;20099;-84
2023/11/27 01:06:27;;;;;;;7.03;4.57;;;5.40;67.50;;;;;;5017578;28;20034;-87
2023/11/27 01:08:53;;;;;;;7.15;4.55;;;5.40;67.70;;;;;;5013015;28;20043;-85
2023/11/27 01:11:19;;;;;;;6.95;4.63;;;5.50;67.70;;;;;;5034528;28;20345;-84
2023/11/27 01:13:45;;;;;;;7.70;4.60;;;5.40;67.80;;;;;;5018661;28;20029;-82
2023/11/27 01:16:11;;;;;;;6.70;4.78;;;5.50;67.60;;;;;;5038192;28;20032;-83
2023/11/27 01:18:37;;;;;;;6.38;4.35;;;5.40;67.50;;;;;;5038545;28;20385;-82
2023/11/27 01:21:05;;;;;;;6.93;4.72;;;5.50;67.40;;;;;;5054202;28;20410;-80
2023/11/27 01:23:31;;;;;;;8.27;5.03;;;5.40;67.50;;;;;;5039111;28;20029;-81
2023/11/27 01:25:57;;;;;;;6.40;4.38;;;5.50;67.70;;;;;;5038351;28;20056;-81
2023/11/27 01:28:23;;;;;;;7.72;4.82;;;5.50;67.70;;;;;;5019589;28;20479;-84
2023/11/27 01:30:49;;;;;;;7.15;4.80;;;5.50;67.50;;;;;;5053356;28;20095;-84
2023/11/27 01:33:16;;;;;;;6.28;4.18;;;5.40;67.40;;;;;;5027318;28;20132;-85
2023/11/27 01:35:42;;;;;;;7.35;4.45;;;5.40;67.40;;;;;;5023738;28;20094;-84
2023/11/27 01:38:08;;;;;;;6.35;4.18;;;5.40;67.20;;;;;;5035633;28;20032;-86
2023/11/27 01:40:34;;;;;;;6.53;4.20;;;5.40;67.20;;;;;;5004127;28;20030;-81
2023/11/27 01:43:00;;;;;;;5.70;3.95;;;5.40;67.10;;;;;;5020208;28;20051;-81
2023/11/27 01:45:29;;;;;;;7.30;4.47;;;5.40;67.30;;;;;;5036684;28;20039;-83
2023/11/27 01:47:55;;;;;;;9.25;4.53;;;5.40;67.20;;;;;;5037936;28;20037;-82
2023/11/27 01:50:22;;;;;;;7.13;4.05;;;5.40;67.30;;;;;;5002351;28;20048;-81
2023/11/27 01:52:50;;;;;;;6.45;4.40;;;5.40;67.30;;;;;;5038105;28;20040;-81
2023/11/27 01:55:16;;;;;;;6.63;4.55;;;5.40;67.30;;;;;;5037378;28;20037;-83
2023/11/27 01:57:42;;;;;;;6.45;4.25;;;5.40;67.40;;;;;;5024184;28;20404;-82
2023/11/27 02:00:11;;;;;;;7.82;4.63;;;5.40;67.40;;;;;;5036011;28;20415;-82
2023/11/27 02:02:45;;;;;;;7.32;4.50;;;5.40;67.30;;;;;;5019980;28;20526;-80
2023/11/27 02:05:11;;;;;;;5.30;3.78;;;5.40;67.40;;;;;;5033307;28;20045;-80
2023/11/27 02:07:38;;;;;;;6.68;4.10;;;5.40;67.30;;;;;;5016672;28;20033;-79
2023/11/27 02:10:04;;;;;;;4.93;3.58;;;5.40;67.30;;;;;;5031755;28;20040;-80
2023/11/27 02:12:30;;;;;;;6.53;4.15;;;5.40;67.30;;;;;;5020969;28;20494;-83
2023/11/27 02:14:57;;;;;;;4.43;3.42;;;5.40;67.20;;;;;;5014580;28;20034;-83
2023/11/27 02:17:23;;;;;;;5.53;3.90;;;5.40;67.30;;;;;;5017753;28;20396;-83
2023/11/27 02:19:49;;;;;;;6.15;4.20;;;5.40;67.60;;;;;;5017566;28;20025;-82
2023/11/27 02:22:15;;;;;;;5.90;3.78;;;5.40;67.50;;;;;;5015731;28;20037;-81
2023/11/27 02:24:42;;;;;;;6.35;4.20;;;5.40;67.50;;;;;;5029412;28;20383;-82
2023/11/27 02:27:08;;;;;;;6.22;4.10;;;5.40;67.40;;;;;;5051895;28;20037;-80
2023/11/27 02:29:34;;;;;;;5.70;3.88;;;5.40;67.30;;;;;;5019227;28;20468;-82
2023/11/27 02:32:04;;;;;;;7.15;4.03;;;5.50;67.30;;;;;;5035874;28;20035;-82
2023/11/27 02:34:30;;;;;;;6.15;3.63;;;5.50;67.30;;;;;;5035644;28;20128;-82
2023/11/27 02:36:56;;;;;;;6.28;4.20;;;5.50;67.40;;;;;;5036551;28;21152;-82
2023/11/27 02:39:23;;;;;;;5.75;3.60;;;5.50;67.40;;;;;;5027363;28;20037;-83
2023/11/27 02:41:49;;;;;;;4.38;3.25;;;5.50;67.40;;;;;;5017294;28;20029;-82
2023/11/27 02:44:15;;;;;;;4.75;3.78;;;5.50;67.50;;;;;;5036072;28;20026;-82
2023/11/27 02:46:41;;;;;;;4.68;3.35;;;5.50;67.50;;;;;;5035356;28;20108;-82
2023/11/27 02:49:07;;;;;;;5.55;4.07;;;5.50;67.20;;;;;;5035056;28;20590;-80
2023/11/27 02:51:40;;;;;;;5.10;3.50;;;5.50;67.30;;;;;;5037248;28;20438;-81
2023/11/27 02:54:07;;;;;;;4.78;3.40;;;5.50;67.30;;;;;;5032597;28;20030;-82
2023/11/27 02:56:33;;;;;;;5.22;3.40;;;5.50;67.50;;;;;;4998903;28;20095;-82
2023/11/27 02:58:59;;;;;;;5.25;3.20;;;5.50;67.50;;;;;;5039330;28;20404;-82
2023/11/27 03:01:26;;;;;;;4.88;3.28;;;5.50;67.60;;;;;;5016131;28;20025;-80
2023/11/27 03:03:52;;;;;;;5.22;3.63;;;5.50;67.40;;;;;;5029550;28;20068;-80
2023/11/27 03:06:19;;;;;;;4.20;3.00;;;5.50;67.50;;;;;;5035970;28;20038;-82
2023/11/27 03:08:45;;;;;;;4.50;3.05;;;5.50;67.90;;;;;;5033665;28;20434;-78
2023/11/27 03:11:11;;;;;;;4.38;3.33;;;5.50;67.50;;;;;;5035803;28;20039;-85
2023/11/27 03:13:39;;;;;;;4.47;2.72;;;5.50;67.90;;;;;;5033188;28;20030;-83
2023/11/27 03:16:06;;;;;;;6.25;2.80;;;5.50;67.60;;;;;;5033537;28;20110;-82
2023/11/27 03:18:32;;;;;;;4.68;2.95;;;5.50;67.50;;;;;;5009318;28;20033;-83
2023/11/27 03:20:58;;;;;;;3.20;2.50;;;5.50;67.50;;;;;;5018808;28;20041;-82
2023/11/27 03:23:24;;;;;;;3.70;2.90;;;5.50;67.60;;;;;;5051706;28;20037;-77
2023/11/27 03:25:51;;;;;;;3.75;2.70;;;5.50;67.60;;;;;;5035249;28;20033;-80
2023/11/27 03:28:17;;;;;;;4.20;2.67;;;5.60;67.60;;;;;;5023350;28;20112;-79
2023/11/27 03:30:43;;;;;;;3.65;2.80;;;5.50;67.60;;;;;;5017741;28;20151;-82
2023/11/27 03:33:09;;;;;;;2.92;2.53;;;5.50;67.60;;;;;;5034223;28;20043;-80
2023/11/27 03:35:35;;;;;;;4.55;2.67;;;5.50;67.60;;;;;;5052429;28;20387;-81
2023/11/27 03:38:03;;;;;;;3.85;2.80;;;5.50;67.60;;;;;;5051112;28;20056;-80
2023/11/27 03:40:29;;;;;;;2.92;2.13;;;5.60;67.70;;;;;;5034985;28;20040;-80
2023/11/27 03:42:57;;;;;;;3.92;2.53;;;5.50;67.50;;;;;;5034851;28;20076;-81
2023/11/27 03:45:23;;;;;;;3.10;2.20;;;5.60;67.80;;;;;;5035748;28;20041;-80
2023/11/27 03:47:49;;;;;;;3.10;2.60;;;5.50;67.70;;;;;;5033138;28;20128;-84
2023/11/27 03:50:15;;;;;;;2.17;1.95;;;5.50;68.20;;;;;;5031123;28;20063;-85
2023/11/27 03:52:42;;;;;;;2.58;2.00;;;5.60;68.40;;;;;;5035008;28;20025;-85
2023/11/27 03:55:09;;;;;;;4.65;2.30;;;5.60;68.50;;;;;;5012651;28;20044;-79
2023/11/27 03:57:37;;;;;;;2.65;2.10;;;5.60;68.80;;;;;;5017124;28;20057;-79
2023/11/27 04:00:09;;;;;;;2.35;1.80;;;5.60;69.00;;;;;;5034818;28;20809;-77
2023/11/27 04:02:39;;;;;;;2.17;1.80;;;5.60;69.30;;;;;;5034217;28;20503;-81
2023/11/27 04:05:06;;;;;;;2.10;1.88;;;5.60;69.50;;;;;;5033007;28;20597;-80
2023/11/27 04:07:32;;;;;;;2.40;1.60;;;5.70;69.70;;;;;;5034280;28;20026;-80
2023/11/27 04:09:58;;;;;;;2.75;1.75;;;5.70;69.80;;;;;;5039130;28;20053;-78
2023/11/27 04:12:24;;;;;;;2.00;1.80;;;5.70;69.80;;;;;;5033885;28;20116;-78
2023/11/27 04:14:51;;;;;;;2.25;1.65;;;5.70;69.80;;;;;;5037701;28;20463;-78
2023/11/27 04:17:18;;;;;;;1.95;1.40;;;5.70;70.00;;;;;;5034354;28;20029;-78
2023/11/27 04:19:44;;;;;;;2.25;1.60;;;5.80;70.00;;;;;;5018742;28;20037;-80
2023/11/27 04:22:10;;;;;;;3.00;1.75;;;5.80;70.10;;;;;;5049781;28;20061;-77
2023/11/27 04:24:36;;;;;;;1.65;1.50;;;5.80;70.00;;;;;;5022623;28;20073;-78
2023/11/27 04:27:02;;;;;;;2.35;2.15;;;5.80;70.40;;;;;;5028540;28;20041;-81
2023/11/27 04:29:28;;;;;;;1.90;1.60;;;5.80;69.80;;;;;;5013935;28;20076;-78
2023/11/27 04:31:55;;;;;;;1.80;1.20;;;5.80;69.90;;;;;;5015571;28;20033;-77
2023/11/27 04:34:21;;;;;;;2.17;1.35;;;5.90;70.00;;;;;;5012855;28;20030;-77
2023/11/27 04:36:48;;;;;;;2.10;1.65;;;5.90;70.10;;;;;;5013319;28;20042;-77
2023/11/27 04:39:14;;;;;;;1.50;1.40;;;5.90;70.10;;;;;;5016995;28;20081;-78
2023/11/27 04:41:42;;;;;;;1.50;1.40;;;5.90;70.10;;;;;;5018765;28;20065;-79
2023/11/27 04:44:09;;;;;;;1.35;1.15;;;5.90;70.10;;;;;;5017616;28;20033;-79
2023/11/27 04:46:35;;;;;;;1.50;1.40;;;5.90;70.20;;;;;;5020509;28;20026;-83
2023/11/27 04:49:01;;;;;;;1.85;1.33;;;5.90;70.10;;;;;;5019595;28;20120;-83
2023/11/27 04:51:28;;;;;;;2.38;1.30;;;6.00;70.30;;;;;;5018085;28;20500;-85
2023/11/27 04:53:54;;;;;;;3.88;1.40;;;6.00;70.90;;;;;;5019244;28;20488;-82
2023/11/27 04:56:20;;;;;;;4.25;2.10;;;6.10;75.00;;;;;;5018701;28;20082;-85
2023/11/27 04:58:46;;;;;;;2.97;1.83;;;6.10;77.50;;;;;;5015784;28;20547;-85
2023/11/27 05:01:12;;;;;;;5.85;2.00;;;6.10;78.90;;;;;;5019008;28;20046;-82
2023/11/27 05:03:38;;;;;;;2.88;1.65;;;6.20;78.70;;;;;;5017435;28;20037;-82
2023/11/27 05:06:04;;;;;;;3.90;1.83;;;6.20;78.10;;;;;;5018496;28;20990;-79
2023/11/27 05:08:30;;;;;;;3.67;1.75;;;6.20;77.40;;;;;;5019280;28;20500;-81
2023/11/27 05:10:56;;;;;;;3.90;1.65;;;6.20;76.90;;;;;;5017699;28;20038;-81
2023/11/27 05:13:23;;;;;;;3.05;1.80;;;6.20;76.30;;;;;;5016712;28;20519;-80
2023/11/27 05:15:49;;;;;;;2.58;1.75;;;6.30;76.10;;;;;;5015637;28;20049;-80
2023/11/27 05:18:15;;;;;;;2.97;2.00;;;6.30;75.80;;;;;;5017111;28;20046;-81
2023/11/27 05:20:42;;;;;;;2.92;1.50;;;6.30;75.60;;;;;;5017495;28;20053;-79
2023/11/27 05:23:08;;;;;;;1.75;1.48;;;6.30;75.30;;;;;;5016805;28;20729;-80
2023/11/27 05:25:34;;;;;;;2.28;1.83;;;6.30;75.20;;;;;;5016976;28;20037;-80
2023/11/27 05:28:00;;;;;;;4.32;1.90;;;6.30;75.10;;;;;;5034101;28;20476;-81
2023/11/27 05:30:26;;;;;;;2.92;2.10;;;6.30;74.80;;;;;;5025763;28;20060;-79
2023/11/27 05:32:52;;;;;;;4.57;1.98;;;6.30;74.60;;;;;;5023811;28;20496;-80
2023/11/27 05:35:18;;;;;;;3.55;1.52;;;6.30;74.50;;;;;;5037550;28;20423;-80
2023/11/27 05:37:44;;;;;;;4.28;1.98;;;6.40;74.50;;;;;;5038955;28;20029;-79
2023/11/27 05:40:11;;;;;;;2.08;1.88;;;6.40;74.40;;;;;;5036284;28;20033;-83
2023/11/27 05:42:39;;;;;;;2.70;1.58;;;6.40;74.30;;;;;;5037197;28;20036;-80
2023/11/27 05:45:12;;;;;;;1.70;1.40;;;6.40;74.30;;;;;;5037404;28;20033;-78
2023/11/27 05:47:39;;;;;;;1.92;1.30;;;6.40;74.20;;;;;;5037352;28;20099;-80
2023/11/27 05:50:08;;;;;;;1.30;1.20;;;6.40;74.20;;;;;;5037129;28;20182;-78
2023/11/27 05:52:34;;;;;;;1.73;1.20;;;6.40;74.10;;;;;;5037568;28;20356;-78
2023/11/27 05:55:00;;;;;;;2.47;1.08;;;6.40;74.00;;;;;;5037230;28;20144;-78
2023/11/27 05:57:26;;;;;;;2.10;1.42;;;6.40;74.20;;;;;;5036560;28;20060;-77
2023/11/27 05:59:53;;;;;;;2.50;1.45;;;6.50;74.30;;;;;;5035488;28;20061;-78
2023/11/27 06:02:19;;;;;;;1.95;1.02;;;6.50;74.30;;;;;;5036191;28;20535;-79
2023/11/27 06:04:45;;;;;;;3.35;1.23;;;6.50;75.00;;;;;;5037694;28;20040;-77
2023/11/27 06:07:11;;;;;;;1.70;1.17;;;6.50;74.50;;;;;;5036569;28;20045;-77
2023/11/27 06:09:37;;;;;;;1.85;1.10;;;6.50;74.50;;;;;;5036153;28;21186;-77
2023/11/27 06:12:03;;;;;;;2.50;1.00;;;6.50;74.40;;;;;;5037119;28;20388;-77
2023/11/27 06:14:30;;;;;;;2.33;1.23;;;6.60;74.50;;;;;;5035355;28;20055;-77
2023/11/27 06:16:56;;;;;;;3.40;1.20;;;6.50;74.60;;;;;;5037566;28;20034;-77
2023/11/27 06:19:22;;;;;;;1.98;1.10;;;6.50;74.60;;;;;;5036408;28;20067;-78
2023/11/27 06:21:48;;;;;;;1.73;1.00;;;6.60;74.90;;;;;;5036613;28;20045;-76
2023/11/27 06:24:14;;;;;;;1.65;0.82;;;6.60;75.00;;;;;;5035417;28;20061;-78
2023/11/27 06:26:40;;;;;;;1.35;0.88;;;6.60;74.80;;;;;;5030124;28;20061;-78
2023/11/27 06:29:06;;;;;;;2.25;0.80;;;6.60;74.80;;;;;;5014943;28;20034;-78
2023/11/27 06:31:33;;;;;;;1.40;1.05;;;6.60;74.90;;;;;;5017634;28;20096;-78
2023/11/27 06:33:59;;;;;;;1.77;1.02;;;6.60;74.80;;;;;;5014657;28;20030;-76
2023/11/27 06:36:26;;;;;;;1.83;0.77;;;6.60;74.80;;;;;;5016092;28;20034;-78
2023/11/27 06:38:52;;;;;;;1.17;1.08;;;6.70;74.80;;;;;;5015722;28;20515;-76
2023/11/27 06:41:18;;;;;;;1.30;0.90;;;6.70;74.80;;;;;;5015095;28;20037;-75
2023/11/27 06:43:44;;;;;;;0.85;0.75;;;6.70;75.10;;;;;;5015217;28;20495;-77
2023/11/27 06:46:14;;;;;;;1.52;1.23;;;6.70;75.00;;;;;;5018045;28;20060;-77
2023/11/27 06:48:40;;;;;;;1.23;0.85;;;6.70;75.10;;;;;;5015827;28;20038;-77
2023/11/27 06:51:09;;;;;;;1.85;0.80;;;6.70;75.10;;;;;;5029518;28;20045;-77
2023/11/27 06:53:36;;;;;;;1.85;0.93;;;6.70;75.00;;;;;;5013809;28;20116;-77
2023/11/27 06:56:02;;;;;;;1.77;0.80;;;6.70;75.00;;;;;;5016096;28;20036;-77
2023/11/27 06:58:30;;;;;;;1.70;1.00;;;6.70;75.00;;;;;;5035628;28;21049;-78
2023/11/27 07:00:58;;;;;;;0.75;0.75;;;6.80;74.80;;;;;;5037321;28;20033;-77
2023/11/27 07:03:24;;;;;;;1.08;0.70;;;6.80;74.80;;;;;;5036862;28;20538;-77
2023/11/27 07:05:50;;;;;;;1.55;0.70;;;6.70;74.60;;;;;;5034702;28;20039;-77
2023/11/27 07:08:17;;;;;;;0.82;0.77;;;6.80;74.70;;;;;;5035820;28;20041;-77
2023/11/27 07:10:43;;;;;;;1.45;0.77;;;6.80;74.50;;;;;;5035293;28;20032;-75
2023/11/27 07:13:09;;;;;;;1.63;1.10;;;6.80;77.10;;;;;;5035096;28;20099;-81
2023/11/27 07:15:35;;;;;;;1.25;0.80;;;6.90;82.00;;;;;;5035436;28;20647;-75
2023/11/27 07:18:02;;;;;;;2.70;0.82;;;7.00;84.10;;;;;;5033952;28;20543;-79
2023/11/27 07:20:28;;;;;;;2.70;0.95;;;7.20;85.10;;;;;;5035851;28;20033;-79
2023/11/27 07:22:54;;;;;;;2.10;0.80;;;7.30;85.80;;;;;;5036573;28;20430;-78
2023/11/27 07:25:20;;;;;;;1.67;0.98;;;7.40;86.10;;;;;;5036040;28;20041;-78
2023/11/27 07:27:49;;;;;;;1.15;0.77;;;7.50;86.50;;;;;;5035275;28;20033;-76
2023/11/27 07:30:17;;;;;;;2.83;1.00;;;7.60;86.60;;;;;;5034862;28;20045;-77
2023/11/27 07:32:45;;;;;;;2.80;0.80;;;7.70;86.60;;;;;;5035798;28;20060;-77
2023/11/27 07:35:11;;;;;;;1.27;0.60;;;7.80;86.50;;;;;;5022512;28;20033;-78
2023/11/27 07:37:38;;;;;;;1.95;0.93;;;8.00;86.60;;;;;;5035308;28;20033;-78
2023/11/27 07:40:10;;;;;;;0.70;0.70;;;8.10;86.00;;;;;;5035888;28;20039;-78
2023/11/27 07:42:36;;;;;;;1.05;0.95;;;8.20;85.70;;;;;;5032535;28;20511;-78
2023/11/27 07:45:04;;;;;;;1.02;0.93;;;8.30;85.50;;;;;;5033921;28;20063;-78
2023/11/27 07:47:31;;;;;;;1.60;0.73;;;8.50;85.20;;;;;;5034140;28;20063;-79
2023/11/27 07:49:57;;;;;;;1.20;1.08;;;8.50;84.80;;;;;;5035289;28;20033;-79
2023/11/27 07:52:23;;;;;;;0.70;0.70;;;8.60;84.50;;;;;;5034993;28;20041;-80
2023/11/27 07:54:49;;;;;;;0.90;0.75;;;8.70;84.20;;;;;;5031307;28;20809;-77
2023/11/27 07:57:15;;;;;;;1.45;0.95;;;8.80;83.80;;;;;;5035064;28;20045;-80
2023/11/27 07:59:43;;;;;;;2.50;0.90;;;8.90;83.50;;;;;;5035385;28;20819;-81
2023/11/27 08:02:09;;;;;;;2.05;1.00;;;8.90;82.30;;;;;;5034772;28;20077;-81
2023/11/27 08:04:35;;;;;;;1.85;1.13;;;8.90;81.30;;;;;;5035732;28;20552;-80
2023/11/27 08:07:01;;;;;;;1.10;1.10;;;8.80;80.30;;;;;;5034251;28;20033;-81
2023/11/27 08:09:27;;;;;;;1.48;1.15;;;8.80;79.50;;;;;;5034373;28;20395;-80
2023/11/27 08:11:54;;;;;;;1.85;1.50;;;8.80;78.80;;;;;;5034965;28;20045;-80
2023/11/27 08:14:21;;;;;;;1.35;1.10;;;8.80;78.30;;;;;;5034022;28;20029;-80
2023/11/27 08:16:48;;;;;;;1.05;1.00;;;8.70;77.80;;;;;;5018299;28;20018;-80
2023/11/27 08:19:16;;;;;;;2.80;1.50;;;8.70;77.40;;;;;;5035634;28;20049;-80
2023/11/27 08:21:44;;;;;;;2.25;1.40;;;8.60;77.10;;;;;;5038257;28;20041;-81
2023/11/27 08:24:13;;;;;;;2.45;1.65;;;8.60;77.00;;;;;;5038953;28;20037;-80
2023/11/27 08:26:40;;;;;;;1.52;1.20;;;8.50;76.80;;;;;;5037491;28;20063;-81
2023/11/27 08:29:07;;;;;;;1.55;1.45;;;8.50;76.70;;;;;;5038366;28;20032;-81
2023/11/27 08:31:34;;;;;;;1.50;1.40;;;8.50;76.60;;;;;;5038004;28;20021;-82
2023/11/27 08:34:03;;;;;;;3.28;1.75;;;8.50;76.50;;;;;;5038316;28;20361;-82
2023/11/27 08:36:32;;;;;;;1.77;1.52;;;8.40;76.40;;;;;;5038145;28;20033;-81
2023/11/27 08:38:58;;;;;;;1.70;1.60;;;8.40;76.40;;;;;;5038422;28;20029;-82
2023/11/27 08:41:24;;;;;;;2.30;1.80;;;8.30;76.40;;;;;;5033615;28;20484;-81
2023/11/27 08:43:50;;;;;;;3.03;1.60;;;8.30;76.30;;;;;;5018002;28;20048;-81
2023/11/27 08:46:17;;;;;;;3.13;2.00;;;8.30;76.30;;;;;;5017721;28;20498;-81
2023/11/27 08:48:43;;;;;;;2.85;1.73;;;8.20;76.30;;;;;;5006503;28;20033;-83
2023/11/27 08:51:09;;;;;;;4.13;2.20;;;8.20;76.40;;;;;;5028531;28;20164;-81
2023/11/27 08:53:35;;;;;;;2.50;1.90;;;8.20;76.40;;;;;;4999067;28;20040;-81
2023/11/27 08:56:02;;;;;;;2.13;1.92;;;8.10;76.40;;;;;;5003328;28;20037;-82
2023/11/27 08:58:31;;;;;;;4.10;2.38;;;8.10;76.50;;;;;;5039548;28;20061;-83
2023/11/27 09:00:57;;;;;;;4.38;2.05;;;8.10;76.60;;;;;;5029672;28;20125;-82
2023/11/27 09:03:23;;;;;;;2.83;1.77;;;8.10;76.70;;;;;;5003470;28;20041;-85
2023/11/27 09:05:51;;;;;;;2.67;2.25;;;8.10;76.80;;;;;;5011184;28;20044;-81
2023/11/27 09:08:17;;;;;;;2.42;1.70;;;8.00;76.70;;;;;;5023862;28;20049;-86
2023/11/27 09:10:44;;;;;;;2.75;1.90;;;8.00;76.80;;;;;;5035018;28;20056;-86
2023/11/27 09:13:12;;;;;;;4.63;2.45;;;8.00;76.90;;;;;;5019303;28;20626;-87
2023/11/27 09:15:38;;;;;;;3.17;2.08;;;8.00;77.60;;;;;;5018290;28;20078;-84
2023/11/27 09:18:04;;;;;;;2.50;2.13;;;7.90;77.10;;;;;;5037815;28;20033;-88
2023/11/27 09:20:30;;;;;;;3.00;2.08;;;7.90;77.30;;;;;;5037126;28;20408;-85
2023/11/27 09:22:56;;;;;;;2.30;2.08;;;7.90;77.20;;;;;;5022359;28;20033;-86
2023/11/27 09:25:22;;;;;;;3.30;2.10;;;7.90;77.10;;;;;;5035704;28;20052;-86
2023/11/27 09:27:48;;;;;;;3.08;2.20;;;7.80;77.20;;;;;;5036961;28;20395;-85
2023/11/27 09:30:14;;;;;;;3.42;2.10;;;7.80;77.40;;;;;;5036603;28;20041;-84
2023/11/27 09:32:40;;;;;;;3.05;2.17;;;7.80;77.50;;;;;;5033680;28;20037;-82
2023/11/27 09:35:08;;;;;;;3.20;2.50;;;7.80;77.60;;;;;;5033303;28;20041;-80
2023/11/27 09:37:35;;;;;;;3.70;2.58;;;7.70;77.60;;;;;;5040922;28;20044;-87
2023/11/27 09:40:03;;;;;;;4.85;3.10;;;7.80;77.80;;;;;;5017687;28;20500;-86
2023/11/27 09:42:40;;;;;;;2.80;2.45;;;7.70;77.80;;;;;;5017847;28;20072;-87
2023/11/27 09:45:09;;;;;;;2.92;2.63;;;7.70;78.30;;;;;;5035119;28;20033;-84
2023/11/27 09:47:37;;;;;;;4.78;2.50;;;7.70;77.80;;;;;;5025592;28;20036;-85
2023/11/27 09:50:08;;;;;;;4.15;2.80;;;7.70;77.90;;;;;;5036975;28;20032;-84
2023/11/27 09:53:08;;;;;;;2.80;2.38;;;7.70;78.10;;;;;;5026161;28;20108;-84
2023/11/27 09:55:35;;;;;;;3.33;2.58;;;7.70;78.30;;;;;;5028705;28;20407;-84
2023/11/27 09:58:02;;;;;;;2.65;2.45;;;7.70;78.30;;;;;;5034713;28;20057;-84
2023/11/27 10:00:30;;;;;;;4.00;2.60;;;7.60;78.20;;;;;;5050841;28;20079;-83
2023/11/27 10:02:57;;;;;;;3.10;2.42;;;7.60;78.30;;;;;;5037792;28;20036;-84
2023/11/27 10:05:23;;;;;;;5.50;3.22;;;7.70;78.40;;;;;;5033675;28;20099;-84
2023/11/27 10:07:53;;;;;;;4.43;2.35;;;7.60;78.50;;;;;;5001666;28;20033;-85
2023/11/27 10:10:26;;;;;;;4.20;2.33;;;7.60;78.60;;;;;;5013516;28;20512;-84
2023/11/27 10:13:18;;;;;;;4.47;2.55;;;7.60;78.50;;;;;;5029181;28;20033;-83
2023/11/27 10:15:48;;;;;;;2.75;1.90;;;7.50;78.40;;;;;;5022185;28;20037;-85
2023/11/27 10:18:18;;;;;;;3.72;2.28;;;7.60;78.70;;;;;;5004132;28;20033;-84
2023/11/27 10:20:44;;;;;;;3.03;2.30;;;7.50;78.60;;;;;;5015836;28;20117;-81
2023/11/27 10:23:11;;;;;;;3.30;2.22;;;7.50;78.50;;;;;;5033312;28;20126;-81
2023/11/27 10:25:37;;;;;;;1.92;1.83;;;7.50;78.50;;;;;;5014924;28;20028;-79
2023/11/27 10:28:06;;;;;;;3.33;2.10;;;7.50;78.80;;;;;;5015368;28;20037;-81
2023/11/27 10:30:32;;;;;;;3.42;1.98;;;7.50;78.70;;;;;;5012869;28;20516;-78
2023/11/27 10:32:58;;;;;;;2.85;2.45;;;7.50;78.70;;;;;;5004835;28;20039;-81
2023/11/27 10:35:25;;;;;;;2.95;2.15;;;7.50;78.70;;;;;;5031666;28;20045;-81
2023/11/27 10:37:54;;;;;;;2.55;1.90;;;7.50;78.90;;;;;;5014050;28;20737;-79
2023/11/27 10:40:22;;;;;;;4.00;2.15;;;7.50;79.10;;;;;;5013244;28;20038;-81
2023/11/27 10:42:49;;;;;;;3.40;2.25;;;7.50;79.10;;;;;;5013717;28;20053;-81
2023/11/27 10:45:21;;;;;;;3.47;2.42;;;7.40;79.20;;;;;;5014276;28;20069;-80
2023/11/27 10:47:50;;;;;;;2.90;2.60;;;7.40;79.10;;;;;;5013702;28;20034;-79
2023/11/27 10:50:17;;;;;;;4.35;2.10;;;7.50;79.30;;;;;;5012726;28;20148;-80
2023/11/27 10:52:48;;;;;;;4.55;2.30;;;7.50;79.20;;;;;;5011070;28;20047;-80
2023/11/27 10:55:19;;;;;;;2.92;2.55;;;7.40;79.20;;;;;;5032233;28;20044;-77
2023/11/27 10:57:48;;;;;;;6.28;3.30;;;7.50;79.30;;;;;;5033952;28;20057;-81
2023/11/27 11:00:29;;;;;;;3.25;2.70;;;7.40;79.30;;;;;;5035140;28;20044;-81
2023/11/27 11:03:01;;;;;;;5.75;3.28;;;7.40;79.40;;;;;;5034123;28;20510;-79
2023/11/27 11:05:35;;;;;;;3.08;2.65;;;7.40;79.50;;;;;;5036009;28;20710;-80
2023/11/27 11:08:03;;;;;;;3.63;2.88;;;7.40;79.60;;;;;;5032405;28;20419;-80
2023/11/27 11:10:31;;;;;;;4.53;2.78;;;7.40;79.70;;;;;;5033227;28;20084;-80
2023/11/27 11:13:07;;;;;;;4.72;3.13;;;7.40;79.70;;;;;;5034458;28;20029;-81
2023/11/27 11:16:00;;;;;;;3.95;2.53;;;7.40;79.50;;;;;;5034164;28;20056;-80
2023/11/27 11:18:34;;;;;;;4.15;2.70;;;7.40;79.50;;;;;;5033926;28;20037;-81
2023/11/27 11:21:05;;;;;;;4.60;2.72;;;7.40;79.70;;;;;;5030311;28;20527;-80
2023/11/27 11:24:23;;;;;;;4.55;2.58;;;7.40;79.70;;;;;;5034090;28;20570;-79
2023/11/27 11:26:49;;;;;;;4.32;2.72;;;7.40;79.70;;;;;;4995508;28;20030;-82
2023/11/27 11:29:26;;;;;;;3.67;2.97;;;7.40;79.70;;;;;;5032347;28;20041;-79
2023/11/27 11:32:10;;;;;;;5.00;2.95;;;7.40;79.70;;;;;;5030315;28;20028;-79
2023/11/27 11:34:38;;;;;;;4.47;3.30;;;7.40;79.80;;;;;;5034182;28;20389;-79
2023/11/27 11:37:06;;;;;;;5.28;2.92;;;7.40;79.80;;;;;;5033660;28;20463;-78
2023/11/27 11:39:34;;;;;;;5.00;3.22;;;7.40;79.70;;;;;;5034352;28;20116;-79
2023/11/27 11:42:04;;;;;;;4.85;3.20;;;7.40;79.50;;;;;;5019372;28;20033;-80
2023/11/27 11:44:35;;;;;;;4.20;3.55;;;7.40;79.90;;;;;;5033069;28;20094;-80
2023/11/27 11:47:27;;;;;;;5.78;3.55;;;7.40;79.60;;;;;;5020822;28;20059;-80
2023/11/27 11:50:31;;;;;;;6.22;4.28;;;7.40;79.60;;;;;;5033264;28;20432;-82
2023/11/27 11:52:58;;;;;;;7.50;4.30;;;7.40;79.70;;;;;;5004349;28;20029;-81
2023/11/27 11:55:32;;;;;;;5.97;3.60;;;7.40;79.70;;;;;;5031814;28;20029;-82
2023/11/27 11:58:30;;;;;;;5.85;3.72;;;7.40;79.70;;;;;;5016149;28;20042;-83
2023/11/27 12:01:01;;;;;;;6.32;3.88;;;7.30;79.70;;;;;;5024934;28;20061;-80
2023/11/27 12:03:32;;;;;;;6.78;3.72;;;7.40;79.70;;;;;;5023916;28;20037;-81
2023/11/27 12:06:02;;;;;;;4.57;3.80;;;7.40;79.70;;;;;;5033656;28;20036;-81
2023/11/27 12:08:30;;;;;;;6.32;3.70;;;7.30;79.50;;;;;;5032560;28;20037;-80
2023/11/27 12:10:57;;;;;;;5.72;3.35;;;7.40;79.50;;;;;;5038552;28;20044;-81
2023/11/27 12:13:33;;;;;;;5.82;3.33;;;7.40;79.30;;;;;;5035777;28;20037;-81
2023/11/27 12:16:11;;;;;;;5.85;3.40;;;7.40;79.30;;;;;;5033454;28;20068;-81
2023/11/27 12:18:42;;;;;;;5.15;2.92;;;7.40;79.10;;;;;;5032742;28;20030;-81
2023/11/27 12:21:16;;;;;;;3.17;2.58;;;7.30;79.10;;;;;;5030251;28;20040;-82
2023/11/27 12:23:47;;;;;;;3.13;2.80;;;7.30;79.10;;;;;;5032459;28;20040;-80
2023/11/27 12:26:22;;;;;;;5.03;2.88;;;7.30;78.90;;;;;;5035498;28;20045;-80
2023/11/27 12:28:50;;;;;;;3.55;2.25;;;7.40;78.90;;;;;;5035845;28;20052;-80
2023/11/27 12:31:16;;;;;;;5.25;2.72;;;7.30;78.60;;;;;;5039740;28;20068;-77
2023/11/27 12:33:44;;;;;;;2.92;2.20;;;7.30;78.50;;;;;;5041787;28;20392;-80
2023/11/27 12:36:11;;;;;;;3.10;2.22;;;7.30;78.30;;;;;;5037922;28;20068;-80
2023/11/27 12:38:40;;;;;;;2.90;2.00;;;7.30;78.30;;;;;;5037276;28;20034;-83
2023/11/27 12:41:08;;;;;;;3.13;2.22;;;7.30;78.30;;;;;;5018218;28;20036;-80
2023/11/27 12:43:41;;;;;;;2.17;1.70;;;7.30;78.20;;;;;;5033471;28;20044;-81
2023/11/27 12:46:17;;;;;;;3.40;1.77;;;7.30;78.00;;;;;;5015567;28;20040;-82
2023/11/27 12:48:48;;;;;;;2.72;2.10;;;7.30;77.80;;;;;;5031980;28;20083;-80
2023/11/27 12:51:18;;;;;;;2.53;1.70;;;7.30;77.90;;;;;;5031710;28;20241;-78
2023/11/27 12:53:47;;;;;;;1.65;1.55;;;7.30;77.80;;;;;;5030723;28;20064;-79
2023/11/27 12:56:15;;;;;;;3.05;1.90;;;7.30;77.80;;;;;;5032948;28;20393;-80
2023/11/27 12:58:41;;;;;;;2.08;1.73;;;7.30;77.80;;;;;;5032454;28;20079;-80
2023/11/27 13:01:08;;;;;;;2.63;1.70;;;7.30;77.80;;;;;;5035804;28;20033;-80